Time;durP1;ratioP1;P1;durP2;ratioP2;P2;SDS_P1;SDS_P2;PMS_P1;PMS_P2;Temp;Humidity;BMP_temperature;BMP_pressure;BME280_temperature;BME280_humidity;BME280_pressure;Samples;Min_cycle;Max_cycle;Signal;HPM_P1;HPM_P2
2021/04/24 00:00:11;;;;;;;6.35;3.02;;;;;;;4.26;62.33;100633.37;1703819;84;21085;-69
2021/04/24 00:02:42;;;;;;;5.85;3.52;;;;;;;4.26;62.32;100645.27;1701370;82;21454;-69
2021/04/24 00:05:18;;;;;;;8.68;3.40;;;;;;;4.22;62.55;100640.92;1694649;82;21679;-70
2021/04/24 00:07:46;;;;;;;6.42;3.40;;;;;;;4.21;62.77;100646.41;1700649;84;21200;-69
2021/04/24 00:10:15;;;;;;;7.30;3.00;;;;;;;4.20;62.67;100648.76;1702529;84;21539;-68
2021/04/24 00:12:43;;;;;;;6.28;4.08;;;;;;;4.18;62.88;100646.86;1701899;82;21232;-69
2021/04/24 00:15:13;;;;;;;8.00;3.60;;;;;;;4.13;62.84;100648.80;1698929;82;22126;-70
2021/04/24 00:17:41;;;;;;;7.03;4.00;;;;;;;4.09;62.96;100642.84;1700352;83;21215;-70
2021/04/24 00:20:12;;;;;;;7.92;4.50;;;;;;;4.04;63.19;100640.01;1697740;84;21209;-70
2021/04/24 00:22:42;;;;;;;6.37;3.80;;;;;;;3.97;63.23;100638.20;1703182;83;21481;-69
2021/04/24 00:25:11;;;;;;;5.97;3.83;;;;;;;3.92;63.49;100642.01;1693794;84;21262;-69
2021/04/24 00:27:39;;;;;;;5.90;3.40;;;;;;;3.88;63.68;100644.78;1686345;84;21457;-68
2021/04/24 00:30:09;;;;;;;6.37;3.33;;;;;;;3.85;64.07;100641.23;1703259;84;21525;-68
2021/04/24 00:32:36;;;;;;;6.83;3.60;;;;;;;3.80;64.19;100639.72;1702872;82;22375;-68
2021/04/24 00:35:06;;;;;;;6.53;3.52;;;;;;;3.76;64.34;100648.58;1699109;83;21219;-68
2021/04/24 00:37:34;;;;;;;6.30;3.60;;;;;;;3.75;64.48;100650.09;1698556;84;21215;-68
2021/04/24 00:40:03;;;;;;;5.20;3.00;;;;;;;3.70;64.64;100637.52;1698847;84;22528;-69
2021/04/24 00:42:31;;;;;;;6.25;3.33;;;;;;;3.69;64.81;100652.27;1693858;84;21739;-69
2021/04/24 00:44:59;;;;;;;6.72;3.62;;;;;;;3.65;65.05;100653.69;1663282;85;21192;-68
2021/04/24 00:47:27;;;;;;;7.05;3.80;;;;;;;3.63;65.34;100649.14;1668705;85;21329;-69
2021/04/24 00:49:55;;;;;;;6.33;3.10;;;;;;;3.61;65.47;100648.53;1665350;85;21061;-68
2021/04/24 00:52:23;;;;;;;5.70;3.60;;;;;;;3.59;65.77;100643.98;1704519;83;21220;-68
2021/04/24 00:54:51;;;;;;;7.00;3.33;;;;;;;3.56;65.80;100643.88;1697164;83;21215;-68
2021/04/24 00:57:18;;;;;;;5.40;3.15;;;;;;;3.52;66.09;100644.81;1695143;83;21204;-68
2021/04/24 00:59:47;;;;;;;6.05;3.77;;;;;;;3.50;66.21;100645.52;1702296;84;21746;-69
2021/04/24 01:02:15;;;;;;;5.17;3.12;;;;;;;3.47;66.44;100649.89;1701218;84;22239;-68
2021/04/24 01:04:43;;;;;;;6.37;3.40;;;;;;;3.45;66.70;100651.91;1693476;82;21229;-68
2021/04/24 01:07:11;;;;;;;6.72;3.47;;;;;;;3.42;66.86;100653.68;1699032;84;21497;-69
2021/04/24 01:09:40;;;;;;;6.33;3.52;;;;;;;3.41;67.08;100642.80;1702682;84;21217;-68
2021/04/24 01:12:08;;;;;;;7.72;3.60;;;;;;;3.42;67.20;100640.96;1694660;83;21268;-68
2021/04/24 01:14:37;;;;;;;5.65;3.35;;;;;;;3.41;67.34;100644.11;1701319;82;21783;-67
2021/04/24 01:17:05;;;;;;;6.60;3.50;;;;;;;3.39;67.56;100644.85;1697868;82;21736;-68
2021/04/24 01:19:33;;;;;;;6.05;3.17;;;;;;;3.35;67.85;100648.90;1699739;84;22288;-67
2021/04/24 01:22:07;;;;;;;5.55;2.95;;;;;;;3.35;68.11;100652.05;1697098;84;21553;-67
2021/04/24 01:24:36;;;;;;;6.28;3.37;;;;;;;3.34;68.21;100639.88;1700844;82;21263;-68
2021/04/24 01:27:05;;;;;;;6.22;3.60;;;;;;;3.35;68.39;100639.66;1700243;82;21643;-68
2021/04/24 01:29:35;;;;;;;6.50;3.20;;;;;;;3.37;68.60;100639.47;1702313;84;21228;-69
2021/04/24 01:32:05;;;;;;;8.68;3.30;;;;;;;3.40;68.69;100645.66;1704741;83;21752;-68
2021/04/24 01:34:33;;;;;;;5.67;3.37;;;;;;;3.43;68.76;100647.37;1693179;83;21262;-68
2021/04/24 01:37:01;;;;;;;6.47;3.45;;;;;;;3.49;68.73;100647.86;1692750;82;21229;-68
2021/04/24 01:39:29;;;;;;;7.17;3.20;;;;;;;3.52;68.86;100638.69;1702069;84;21668;-68
2021/04/24 01:41:57;;;;;;;5.92;3.00;;;;;;;3.53;68.86;100638.50;1702077;84;22071;-68
2021/04/24 01:44:24;;;;;;;5.00;2.90;;;;;;;3.53;68.92;100641.14;1697986;84;21213;-69
2021/04/24 01:46:53;;;;;;;5.85;2.70;;;;;;;3.50;68.97;100633.63;1696766;84;21197;-68
2021/04/24 01:49:22;;;;;;;5.90;3.02;;;;;;;3.44;69.16;100639.74;1662749;84;21663;-69
2021/04/24 01:51:50;;;;;;;5.97;3.00;;;;;;;3.40;69.26;100646.98;1695102;83;21192;-69
2021/04/24 01:54:17;;;;;;;8.45;3.30;;;;;;;3.33;69.41;100645.67;1699855;83;21197;-69
2021/04/24 01:56:50;;;;;;;5.17;2.95;;;;;;;3.29;69.79;100648.40;1696237;84;21292;-70
2021/04/24 01:59:19;;;;;;;4.67;2.20;;;;;;;3.26;69.89;100647.52;1704654;82;21432;-68
2021/04/24 02:01:50;;;;;;;4.65;2.62;;;;;;;3.25;70.06;100639.28;1673752;84;21358;-68
2021/04/24 02:04:18;;;;;;;5.12;3.00;;;;;;;3.22;70.25;100641.02;1701803;84;21648;-68
2021/04/24 02:06:46;;;;;;;5.92;2.62;;;;;;;3.20;70.36;100645.70;1703645;84;22143;-68
2021/04/24 02:09:15;;;;;;;6.33;3.02;;;;;;;3.18;70.58;100640.61;1693116;84;21260;-69
2021/04/24 02:12:10;;;;;;;5.00;2.70;;;;;;;3.18;70.75;100635.34;1705388;82;21188;-68
2021/04/24 02:14:48;;;;;;;4.62;2.60;;;;;;;3.19;70.76;100647.54;1699071;82;21196;-68
2021/04/24 02:17:18;;;;;;;4.28;2.58;;;;;;;3.17;71.10;100646.92;1698414;82;21204;-68
2021/04/24 02:19:47;;;;;;;5.22;2.77;;;;;;;3.17;71.17;100642.16;1704672;84;22201;-67
2021/04/24 02:22:15;;;;;;;4.30;2.50;;;;;;;3.14;71.31;100643.88;1694371;82;21077;-68
2021/04/24 02:24:53;;;;;;;5.03;2.87;;;;;;;3.11;71.55;100645.09;1703270;82;21205;-68
2021/04/24 02:27:21;;;;;;;5.35;2.70;;;;;;;3.11;71.63;100644.30;1697997;82;21201;-69
2021/04/24 02:29:50;;;;;;;9.60;2.80;;;;;;;3.09;71.82;100646.31;1699996;84;21197;-68
2021/04/24 02:32:20;;;;;;;4.78;2.80;;;;;;;3.05;71.87;100646.72;1702874;84;21426;-69
2021/04/24 02:34:49;;;;;;;5.70;3.27;;;;;;;3.01;71.96;100653.43;1697393;83;21152;-69
2021/04/24 02:37:18;;;;;;;6.28;3.80;;;;;;;2.96;72.23;100653.73;1698599;82;21226;-68
2021/04/24 02:39:49;;;;;;;6.53;3.50;;;;;;;2.92;72.54;100655.97;1695423;82;21738;-68
2021/04/24 02:42:22;;;;;;;3.85;2.50;;;;;;;2.92;72.61;100653.33;1700276;82;21515;-68
2021/04/24 02:44:51;;;;;;;6.37;3.45;;;;;;;2.92;72.89;100653.84;1699641;82;21209;-68
2021/04/24 02:47:19;;;;;;;6.53;3.10;;;;;;;2.93;73.01;100653.66;1702719;82;21196;-69
2021/04/24 02:49:47;;;;;;;7.97;3.60;;;;;;;2.98;73.01;100660.95;1701111;82;21279;-70
2021/04/24 02:52:16;;;;;;;6.85;2.95;;;;;;;3.00;72.96;100661.05;1703236;84;21770;-68
2021/04/24 02:54:44;;;;;;;6.12;3.58;;;;;;;3.06;73.02;100659.43;1701931;82;21220;-69
2021/04/24 02:57:12;;;;;;;7.17;3.12;;;;;;;3.11;73.06;100666.72;1698744;82;21374;-68
2021/04/24 02:59:40;;;;;;;5.33;3.40;;;;;;;3.17;73.15;100661.95;1700743;82;21217;-69
2021/04/24 03:02:08;;;;;;;6.83;3.37;;;;;;;3.21;73.18;100665.80;1692938;82;21202;-68
2021/04/24 03:04:36;;;;;;;6.15;3.08;;;;;;;3.24;73.26;100670.15;1701146;84;21205;-70
2021/04/24 03:07:04;;;;;;;6.40;3.02;;;;;;;3.28;73.16;100667.91;1696442;82;21181;-69
2021/04/24 03:09:32;;;;;;;5.03;3.30;;;;;;;3.32;73.15;100663.02;1703260;82;21666;-68
2021/04/24 03:12:00;;;;;;;5.42;2.80;;;;;;;3.34;73.24;100672.37;1702611;84;21196;-67
2021/04/24 03:14:28;;;;;;;4.72;2.80;;;;;;;3.39;73.23;100672.58;1706643;83;21189;-69
2021/04/24 03:16:58;;;;;;;5.08;2.70;;;;;;;3.42;72.94;100679.25;1701997;82;21173;-67
2021/04/24 03:19:26;;;;;;;4.72;3.05;;;;;;;3.43;72.84;100671.13;1692739;82;21611;-68
2021/04/24 03:21:54;;;;;;;6.05;2.80;;;;;;;3.43;72.68;100667.17;1703415;84;21738;-68
2021/04/24 03:24:22;;;;;;;5.50;3.00;;;;;;;3.43;72.54;100667.69;1701552;82;21204;-69
2021/04/24 03:26:50;;;;;;;6.17;3.08;;;;;;;3.39;72.58;100680.98;1702394;83;21180;-69
2021/04/24 03:29:17;;;;;;;6.30;3.30;;;;;;;3.33;72.54;100677.36;1694994;82;21192;-69
2021/04/24 03:31:45;;;;;;;5.70;3.00;;;;;;;3.30;72.66;100676.45;1703632;83;21217;-69
2021/04/24 03:34:13;;;;;;;6.25;3.08;;;;;;;3.28;72.75;100667.39;1698573;82;21291;-71
2021/04/24 03:36:42;;;;;;;5.17;2.72;;;;;;;3.26;72.88;100681.33;1698271;82;21205;-69
2021/04/24 03:39:09;;;;;;;5.55;3.25;;;;;;;3.26;72.90;100687.12;1695010;84;21161;-70
2021/04/24 03:41:37;;;;;;;7.05;3.17;;;;;;;3.28;72.97;100681.11;1697289;82;21219;-71
2021/04/24 03:44:06;;;;;;;6.35;3.25;;;;;;;3.32;73.11;100686.27;1698382;83;21324;-69
2021/04/24 03:46:34;;;;;;;5.10;2.80;;;;;;;3.32;73.10;100692.88;1704040;82;21350;-69
2021/04/24 03:49:03;;;;;;;5.33;2.80;;;;;;;3.31;73.03;100693.09;1694778;83;21184;-70
2021/04/24 03:51:31;;;;;;;5.33;2.98;;;;;;;3.33;72.95;100695.03;1704413;82;21161;-68
2021/04/24 03:53:59;;;;;;;5.55;2.62;;;;;;;3.35;72.81;100701.70;1694340;84;21230;-69
2021/04/24 03:56:27;;;;;;;4.72;2.58;;;;;;;3.40;72.79;100695.83;1692472;82;21199;-69
2021/04/24 03:58:55;;;;;;;6.15;3.33;;;;;;;3.46;72.74;100694.48;1696079;83;21366;-70
2021/04/24 04:01:23;;;;;;;5.12;2.85;;;;;;;3.51;72.51;100700.46;1695212;82;22081;-70
2021/04/24 04:03:51;;;;;;;6.17;3.15;;;;;;;3.53;72.57;100705.03;1707849;82;21184;-71
2021/04/24 04:06:19;;;;;;;6.25;2.62;;;;;;;3.57;72.55;100698.31;1703717;82;21259;-70
2021/04/24 04:08:48;;;;;;;5.22;2.87;;;;;;;3.61;72.40;100700.03;1698912;82;21197;-71
2021/04/24 04:11:16;;;;;;;5.10;2.90;;;;;;;3.64;72.22;100714.14;1689243;83;21381;-69
2021/04/24 04:13:46;;;;;;;6.00;3.10;;;;;;;3.65;72.16;100716.59;1690201;84;21204;-70
2021/04/24 04:16:15;;;;;;;5.85;2.90;;;;;;;3.65;72.00;100719.23;1700474;82;21265;-73
2021/04/24 04:18:43;;;;;;;6.95;3.10;;;;;;;3.67;71.84;100716.38;1699024;83;21611;-71
2021/04/24 04:21:11;;;;;;;6.30;3.15;;;;;;;3.67;71.75;100726.42;1699739;82;21125;-74
2021/04/24 04:23:39;;;;;;;5.62;2.85;;;;;;;3.72;71.56;100717.90;1660627;84;22264;-74
2021/04/24 04:26:06;;;;;;;5.58;2.70;;;;;;;3.73;71.53;100719.52;1702634;82;21054;-71
2021/04/24 04:28:34;;;;;;;5.65;3.10;;;;;;;3.72;71.41;100731.91;1701092;82;21232;-71
2021/04/24 04:31:03;;;;;;;6.50;2.98;;;;;;;3.74;71.34;100725.89;1702486;82;21212;-73
2021/04/24 04:33:31;;;;;;;6.42;2.58;;;;;;;3.80;71.33;100722.94;1705397;84;21258;-73
2021/04/24 04:36:05;;;;;;;4.40;2.60;;;;;;;3.87;71.19;100730.33;1699681;82;21291;-72
2021/04/24 04:38:32;;;;;;;5.92;3.12;;;;;;;3.96;70.88;100736.21;1689641;82;21073;-72
2021/04/24 04:41:00;;;;;;;7.10;3.37;;;;;;;4.03;70.78;100734.86;1694871;84;21121;-71
2021/04/24 04:43:28;;;;;;;5.83;2.90;;;;;;;4.08;70.56;100742.96;1700270;82;21580;-73
2021/04/24 04:45:55;;;;;;;5.50;2.70;;;;;;;4.16;70.21;100737.45;1689152;83;21014;-71
2021/04/24 04:48:23;;;;;;;5.35;3.30;;;;;;;4.18;69.97;100751.28;1699190;82;21354;-71
2021/04/24 04:50:52;;;;;;;5.97;2.90;;;;;;;4.22;69.86;100726.84;1701137;82;21220;-69
2021/04/24 04:53:20;;;;;;;5.90;3.12;;;;;;;4.30;69.80;100736.36;1686693;83;21186;-71
2021/04/24 04:55:50;;;;;;;7.95;3.00;;;;;;;4.36;69.33;100728.91;1699785;82;21201;-71
2021/04/24 04:58:20;;;;;;;4.65;2.70;;;;;;;4.36;69.00;100728.91;1703021;83;21239;-73
2021/04/24 05:00:47;;;;;;;5.62;2.90;;;;;;;4.39;68.92;100726.36;1700449;82;21288;-71
2021/04/24 05:03:15;;;;;;;5.10;3.08;;;;;;;4.44;68.64;100725.20;1705753;82;21365;-73
2021/04/24 05:05:43;;;;;;;4.58;2.60;;;;;;;4.50;68.34;100720.90;1692998;84;21224;-72
2021/04/24 05:08:11;;;;;;;5.50;2.95;;;;;;;4.51;68.12;100727.80;1698063;82;21201;-73
2021/04/24 05:10:39;;;;;;;4.75;2.70;;;;;;;4.49;68.15;100735.16;1702083;82;21644;-72
2021/04/24 05:13:09;;;;;;;5.42;2.98;;;;;;;4.51;68.21;100744.52;1701207;84;21212;-70
2021/04/24 05:15:39;;;;;;;5.42;2.72;;;;;;;4.55;68.14;100748.86;1705035;82;21180;-71
2021/04/24 05:18:06;;;;;;;6.15;2.65;;;;;;;4.58;68.36;100743.15;1704694;82;21233;-71
2021/04/24 05:20:35;;;;;;;6.22;2.35;;;;;;;4.61;68.03;100748.83;1694967;82;21521;-70
2021/04/24 05:23:03;;;;;;;5.55;2.70;;;;;;;4.60;66.70;100747.18;1700422;82;21170;-71
2021/04/24 05:25:31;;;;;;;5.08;2.20;;;;;;;4.58;66.80;100749.77;1702497;82;22719;-71
2021/04/24 05:28:00;;;;;;;4.22;2.10;;;;;;;4.57;67.25;100760.02;1703808;82;21204;-71
2021/04/24 05:30:29;;;;;;;4.72;2.60;;;;;;;4.61;67.38;100758.08;1696232;82;21232;-72
2021/04/24 05:32:58;;;;;;;4.78;2.30;;;;;;;4.66;67.31;100752.14;1701318;82;21264;-68
2021/04/24 05:35:26;;;;;;;4.45;2.08;;;;;;;4.75;67.62;100738.96;1690374;83;21224;-70
2021/04/24 05:37:54;;;;;;;4.22;2.12;;;;;;;4.81;66.66;100750.02;1701497;84;21223;-72
2021/04/24 05:40:22;;;;;;;5.65;2.08;;;;;;;4.79;66.18;100742.80;1698978;82;21220;-73
2021/04/24 05:42:50;;;;;;;4.22;2.35;;;;;;;4.73;65.92;100740.20;1698063;83;21530;-73
2021/04/24 05:45:18;;;;;;;4.35;2.20;;;;;;;4.70;66.31;100739.61;1704851;82;21186;-73
2021/04/24 05:47:49;;;;;;;3.22;1.70;;;;;;;4.72;66.18;100733.29;1701810;82;21224;-75
2021/04/24 05:50:20;;;;;;;3.95;2.15;;;;;;;4.78;65.60;100734.56;1700561;82;21215;-74
2021/04/24 05:52:50;;;;;;;3.40;1.60;;;;;;;4.86;64.72;100740.91;1699590;83;21387;-74
2021/04/24 05:55:19;;;;;;;3.90;1.80;;;;;;;4.98;64.60;100725.16;1691292;82;21149;-72
2021/04/24 05:57:47;;;;;;;3.37;1.42;;;;;;;5.14;63.94;100745.80;1705105;82;21220;-73
2021/04/24 06:00:20;;;;;;;5.53;2.17;;;;;;;5.19;63.03;100739.84;1701075;82;21208;-74
2021/04/24 06:02:48;;;;;;;4.83;1.80;;;;;;;5.12;62.84;100720.56;1687241;83;21299;-73
2021/04/24 06:05:17;;;;;;;5.40;2.30;;;;;;;5.09;62.70;100725.77;1702861;82;21651;-74
2021/04/24 06:07:46;;;;;;;4.37;1.90;;;;;;;5.11;63.09;100726.38;1704846;82;21213;-73
2021/04/24 06:10:17;;;;;;;4.42;2.27;;;;;;;5.17;63.33;100727.36;1701382;82;21192;-74
2021/04/24 06:12:46;;;;;;;4.45;2.22;;;;;;;5.23;63.35;100730.95;1693103;82;22211;-72
2021/04/24 06:15:16;;;;;;;4.58;2.00;;;;;;;5.26;62.53;100749.05;1702476;82;22360;-71
2021/04/24 06:17:44;;;;;;;4.87;2.35;;;;;;;5.22;62.52;100741.25;1698918;84;21242;-71
2021/04/24 06:20:14;;;;;;;4.12;2.35;;;;;;;5.18;63.21;100740.88;1702027;82;21623;-68
2021/04/24 06:22:42;;;;;;;5.75;2.50;;;;;;;5.21;63.43;100740.45;1701566;82;21458;-70
2021/04/24 06:25:13;;;;;;;4.62;2.45;;;;;;;5.27;63.57;100738.78;1702998;82;21189;-71
2021/04/24 06:27:41;;;;;;;6.12;2.80;;;;;;;5.32;62.88;100745.55;1698767;82;21193;-72
2021/04/24 06:30:11;;;;;;;5.58;2.65;;;;;;;5.29;63.13;100739.36;1701936;84;21128;-72
2021/04/24 06:32:40;;;;;;;5.08;2.50;;;;;;;5.27;62.80;100743.56;1691025;82;21211;-73
2021/04/24 06:35:13;;;;;;;4.50;2.62;;;;;;;5.30;63.03;100742.33;1675373;83;21632;-72
2021/04/24 06:37:41;;;;;;;6.05;2.90;;;;;;;5.32;62.74;100740.25;1703053;82;21196;-72
2021/04/24 06:40:12;;;;;;;5.05;2.67;;;;;;;5.29;62.76;100744.66;1694892;82;22158;-72
2021/04/24 06:42:41;;;;;;;;;;;;;;;5.43;62.49;100741.36;1701345;83;21743;-71
2021/04/24 06:45:11;;;;;;;5.55;2.20;;;;;;;5.64;62.43;100728.52;1702752;82;20282;-73
2021/04/24 06:47:39;;;;;;;4.42;2.30;;;;;;;5.83;61.21;100737.81;1702237;82;21482;-72
2021/04/24 06:50:09;;;;;;;6.65;2.55;;;;;;;5.87;59.70;100735.81;1703444;82;21204;-75
2021/04/24 06:52:38;;;;;;;3.80;2.00;;;;;;;5.83;59.25;100725.37;1699659;82;21374;-74
2021/04/24 06:55:08;;;;;;;5.50;2.00;;;;;;;5.83;58.74;100721.91;1703210;83;21302;-77
2021/04/24 06:57:37;;;;;;;3.83;1.95;;;;;;;5.94;58.28;100727.81;1707105;82;21221;-76
2021/04/24 07:00:06;;;;;;;5.35;2.20;;;;;;;6.14;57.88;100736.86;1704421;82;21189;-74
2021/04/24 07:02:34;;;;;;;4.28;2.17;;;;;;;6.36;56.68;100745.16;1698561;82;21114;-74
2021/04/24 07:05:04;;;;;;;3.98;1.60;;;;;;;6.39;54.83;100726.66;1702952;82;21497;-75
2021/04/24 07:07:32;;;;;;;3.77;1.75;;;;;;;6.28;51.75;100748.11;1705192;82;21674;-75
2021/04/24 07:10:01;;;;;;;3.30;1.80;;;;;;;6.24;52.05;100748.27;1701680;83;21183;-73
2021/04/24 07:12:28;;;;;;;3.50;1.55;;;;;;;6.31;51.54;100715.31;1689046;82;21189;-72
2021/04/24 07:14:56;;;;;;;2.80;1.52;;;;;;;6.38;50.62;100743.08;1702138;82;21544;-70
2021/04/24 07:17:25;;;;;;;4.90;2.10;;;;;;;6.32;49.09;100757.26;1698926;82;21283;-71
2021/04/24 07:19:53;;;;;;;4.15;1.82;;;;;;;6.21;49.54;100738.91;1701623;82;22461;-74
2021/04/24 07:22:21;;;;;;;3.33;1.70;;;;;;;6.15;49.28;100745.63;1696210;82;21158;-73
2021/04/24 07:24:49;;;;;;;2.98;1.80;;;;;;;6.13;50.27;100738.42;1681992;83;21661;-73
2021/04/24 07:27:17;;;;;;;3.80;1.75;;;;;;;6.13;49.82;100756.47;1700901;82;21229;-71
2021/04/24 07:29:44;;;;;;;4.62;1.80;;;;;;;6.11;48.57;100751.89;1696588;82;22252;-68
2021/04/24 07:32:12;;;;;;;4.78;1.52;;;;;;;6.19;49.09;100749.47;1693294;82;21224;-71
2021/04/24 07:34:41;;;;;;;2.87;1.20;;;;;;;6.39;46.86;100757.17;1680562;84;21758;-69
2021/04/24 07:37:09;;;;;;;2.45;1.10;;;;;;;6.60;46.26;100731.98;1705114;82;21260;-71
2021/04/24 07:39:37;;;;;;;2.33;1.10;;;;;;;6.82;44.50;100739.72;1703494;83;21244;-78
2021/04/24 07:42:05;;;;;;;3.20;1.30;;;;;;;7.10;43.54;100736.41;1699722;82;22814;-73
2021/04/24 07:44:37;;;;;;;3.80;1.42;;;;;;;7.28;42.76;100727.55;1696823;82;21208;-75
2021/04/24 07:47:04;;;;;;;2.37;1.00;;;;;;;7.32;43.07;100749.14;1701305;82;21235;-75
2021/04/24 07:49:32;;;;;;;2.45;1.00;;;;;;;7.31;42.31;100743.55;1697219;82;21213;-73
2021/04/24 07:52:04;;;;;;;2.35;1.17;;;;;;;7.21;42.05;100747.58;1700939;82;21248;-74
2021/04/24 07:54:33;;;;;;;2.17;1.00;;;;;;;7.06;42.20;100744.55;1700481;82;21256;-74
2021/04/24 07:57:03;;;;;;;2.30;1.00;;;;;;;6.99;41.70;100761.91;1697214;82;21570;-72
2021/04/24 07:59:33;;;;;;;5.12;1.15;;;;;;;6.96;41.92;100742.45;1700584;82;21213;-75
2021/04/24 08:02:02;;;;;;;2.22;1.02;;;;;;;7.03;42.88;100750.31;1697305;83;21213;-71
2021/04/24 08:04:31;;;;;;;2.83;1.15;;;;;;;7.14;41.76;100745.55;1698984;82;21189;-73
2021/04/24 08:06:58;;;;;;;3.30;1.12;;;;;;;7.11;42.19;100731.41;1694053;84;21222;-72
2021/04/24 08:09:27;;;;;;;3.80;1.00;;;;;;;7.05;42.82;100742.41;1700438;82;21276;-72
2021/04/24 08:11:55;;;;;;;1.85;0.70;;;;;;;6.99;41.65;100755.80;1697610;82;21703;-71
2021/04/24 08:14:24;;;;;;;2.77;0.80;;;;;;;6.96;41.55;100749.62;1698351;82;21667;-72
2021/04/24 08:16:52;;;;;;;2.05;1.00;;;;;;;7.02;42.09;100743.39;1698196;82;21121;-71
2021/04/24 08:19:20;;;;;;;2.27;0.80;;;;;;;7.13;42.97;100753.22;1699959;82;21221;-73
2021/04/24 08:21:48;;;;;;;3.30;1.00;;;;;;;7.24;42.34;100741.81;1696111;82;21062;-76
2021/04/24 08:24:16;;;;;;;3.35;1.10;;;;;;;7.21;43.36;100748.11;1696141;82;21212;-72
2021/04/24 08:26:46;;;;;;;2.83;0.98;;;;;;;7.14;41.96;100781.42;1695370;83;21651;-74
2021/04/24 08:29:16;;;;;;;2.08;1.00;;;;;;;7.02;40.89;100750.03;1700691;82;21232;-72
2021/04/24 08:31:45;;;;;;;2.85;1.00;;;;;;;6.99;40.47;100757.12;1700851;83;22415;-72
2021/04/24 08:34:14;;;;;;;2.45;1.02;;;;;;;7.07;40.54;100772.72;1700512;82;21224;-72
2021/04/24 08:36:41;;;;;;;2.77;1.00;;;;;;;7.23;40.38;100780.55;1701966;82;21217;-73
2021/04/24 08:39:09;;;;;;;3.33;0.85;;;;;;;7.40;40.48;100743.47;1693059;82;21505;-72
2021/04/24 08:41:37;;;;;;;3.60;1.15;;;;;;;7.56;40.20;100749.95;1705918;82;21232;-73
2021/04/24 08:44:05;;;;;;;2.80;1.10;;;;;;;7.66;39.75;100758.14;1698966;82;21300;-73
2021/04/24 08:46:33;;;;;;;2.20;1.05;;;;;;;7.70;38.97;100756.13;1703291;84;21134;-72
2021/04/24 08:49:02;;;;;;;3.50;0.80;;;;;;;7.67;39.39;100757.92;1698127;82;21167;-71
2021/04/24 08:51:30;;;;;;;2.00;0.90;;;;;;;7.56;38.74;100745.43;1699419;84;21217;-70
2021/04/24 08:53:59;;;;;;;2.15;0.80;;;;;;;7.44;39.41;100753.42;1701341;82;21216;-74
2021/04/24 08:56:28;;;;;;;2.37;0.98;;;;;;;7.53;39.05;100745.89;1701908;82;21473;-72
2021/04/24 08:58:57;;;;;;;3.58;0.70;;;;;;;7.77;37.70;100752.02;1695477;82;21193;-70
2021/04/24 09:01:26;;;;;;;1.55;0.80;;;;;;;7.97;36.48;100768.41;1693341;84;21242;-71
2021/04/24 09:03:54;;;;;;;3.45;0.85;;;;;;;8.12;36.91;100735.97;1700611;82;21612;-72
2021/04/24 09:06:22;;;;;;;2.95;0.90;;;;;;;8.33;36.51;100759.81;1696955;82;21221;-72
2021/04/24 09:09:11;;;;;;;3.22;0.80;;;;;;;8.53;36.25;100739.98;1703037;82;21227;-74
2021/04/24 09:11:45;;;;;;;3.25;1.00;;;;;;;8.57;37.09;100748.56;1679318;83;21193;-74
2021/04/24 09:14:15;;;;;;;2.22;0.70;;;;;;;8.25;37.28;100783.31;1697495;82;21216;-72
2021/04/24 09:16:44;;;;;;;4.28;0.82;;;;;;;7.91;37.50;100767.20;1702759;82;21180;-74
2021/04/24 09:19:32;;;;;;;2.62;1.05;;;;;;;7.72;36.42;100758.55;1703797;82;21552;-75
2021/04/24 09:22:21;;;;;;;2.33;0.85;;;;;;;7.77;36.48;100781.80;1698589;82;22254;-74
2021/04/24 09:24:51;;;;;;;2.12;0.70;;;;;;;7.97;36.07;100766.27;1696064;82;21161;-74
2021/04/24 09:27:22;;;;;;;2.83;0.80;;;;;;;8.11;36.48;100748.19;1698420;82;21195;-72
2021/04/24 09:30:13;;;;;;;2.50;0.70;;;;;;;8.16;37.48;100751.77;1697353;82;21212;-76
2021/04/24 09:32:41;;;;;;;4.10;0.62;;;;;;;8.05;35.26;100757.91;1698540;82;21618;-75
2021/04/24 09:35:09;;;;;;;4.50;0.90;;;;;;;8.12;37.21;100767.09;1696996;82;21579;-73
2021/04/24 09:37:37;;;;;;;2.17;0.82;;;;;;;8.41;36.66;100762.64;1693252;82;21200;-75
2021/04/24 09:40:11;;;;;;;2.70;0.80;;;;;;;8.58;35.81;100767.48;1696409;82;21229;-73
2021/04/24 09:42:40;;;;;;;3.22;0.70;;;;;;;8.66;35.71;100765.78;1707367;82;21224;-75
2021/04/24 09:45:32;;;;;;;2.37;0.90;;;;;;;8.62;35.29;100783.29;1701857;82;21807;-72
2021/04/24 09:48:01;;;;;;;;;;;;;;;8.48;36.16;100797.91;1702281;82;22035;-75
2021/04/24 09:50:35;;;;;;;2.55;1.00;;;;;;;8.31;37.96;100789.83;1698593;84;20304;-73
2021/04/24 09:53:22;;;;;;;1.92;0.88;;;;;;;8.20;38.79;100778.71;1702199;84;21256;-73
2021/04/24 09:55:52;;;;;;;1.40;0.60;;;;;;;8.13;38.19;100797.47;1684327;83;21349;-71
2021/04/24 09:58:33;;;;;;;2.40;0.70;;;;;;;8.11;37.12;100804.86;1699832;82;21636;-74
2021/04/24 10:01:22;;;;;;;4.42;0.98;;;;;;;8.21;38.50;100762.50;1694927;83;21180;-71
2021/04/24 10:04:00;;;;;;;2.10;1.00;;;;;;;8.49;36.86;100780.91;1827604;76;28010;-71
2021/04/24 10:06:40;;;;;;;4.92;0.90;;;;;;;8.43;36.99;100793.30;1813964;77;21670;-71
2021/04/24 10:09:22;;;;;;;2.95;1.00;;;;;;;8.28;38.43;100796.16;1843073;77;21191;-76
2021/04/24 10:12:01;;;;;;;1.67;0.70;;;;;;;8.00;39.33;100796.39;1840500;75;21128;-70
2021/04/24 10:14:37;;;;;;;1.65;0.50;;;;;;;7.81;39.46;100785.60;1812297;77;21170;-72
2021/04/24 10:17:10;;;;;;;2.50;0.70;;;;;;;7.67;37.48;100791.16;1823950;76;21104;-71
2021/04/24 10:19:38;;;;;;;2.58;0.70;;;;;;;7.56;37.24;100797.27;1814668;77;21165;-71
2021/04/24 10:22:10;;;;;;;3.10;0.82;;;;;;;7.60;38.82;100782.98;1817888;77;22251;-74
2021/04/24 10:24:38;;;;;;;3.33;0.90;;;;;;;7.82;38.17;100775.24;1812509;77;22409;-70
2021/04/24 10:27:07;;;;;;;3.10;1.05;;;;;;;8.06;37.98;100792.80;1807368;77;21135;-73
2021/04/24 10:29:36;;;;;;;1.57;0.72;;;;;;;8.16;37.44;100790.84;1806587;78;21178;-70
2021/04/24 10:32:05;;;;;;;4.75;1.00;;;;;;;8.10;38.89;100799.27;1809527;78;21244;-70
2021/04/24 10:34:34;;;;;;;1.92;0.80;;;;;;;7.93;40.88;100798.34;1822803;77;21245;-71
2021/04/24 10:37:03;;;;;;;1.82;0.80;;;;;;;7.70;41.76;100803.98;1809358;77;21264;-72
2021/04/24 10:39:33;;;;;;;2.35;0.68;;;;;;;7.54;42.08;100808.67;1840579;77;21179;-72
2021/04/24 10:42:06;;;;;;;1.70;0.70;;;;;;;7.46;41.65;100819.63;1820073;77;21667;-72
2021/04/24 10:44:51;;;;;;;1.07;0.60;;;;;;;7.44;41.26;100809.23;1824349;77;21145;-72
2021/04/24 10:47:43;;;;;;;2.22;0.98;;;;;;;7.58;40.06;100811.14;1795652;78;21211;-71
2021/04/24 10:50:21;;;;;;;2.10;0.90;;;;;;;7.83;38.56;100807.44;1835206;77;21249;-72
2021/04/24 10:52:50;;;;;;;1.55;0.60;;;;;;;8.08;37.85;100800.01;1846929;75;21634;-71
2021/04/24 10:55:27;;;;;;;2.52;0.93;;;;;;;8.22;38.28;100800.03;1834685;76;21682;-70
2021/04/24 10:57:59;;;;;;;2.92;0.95;;;;;;;8.30;37.92;100807.38;1819750;77;21180;-71
2021/04/24 11:00:35;;;;;;;3.05;1.02;;;;;;;8.25;38.04;100806.73;1816522;77;21276;-72
2021/04/24 11:03:04;;;;;;;4.22;1.15;;;;;;;8.23;38.50;100817.63;1813226;77;21002;-71
2021/04/24 11:05:48;;;;;;;2.45;1.00;;;;;;;8.30;38.44;100814.03;1836217;77;21243;-70
2021/04/24 11:08:23;;;;;;;1.60;0.62;;;;;;;8.40;38.40;100803.09;1831248;77;21188;-72
2021/04/24 11:11:05;;;;;;;3.85;0.80;;;;;;;8.54;37.83;100793.50;1816185;77;21229;-71
2021/04/24 11:13:44;;;;;;;2.35;0.80;;;;;;;8.68;36.50;100798.81;1848253;75;22304;-73
2021/04/24 11:16:16;;;;;;;2.20;0.70;;;;;;;8.92;35.54;100786.22;1834768;77;21586;-73
2021/04/24 11:18:48;;;;;;;3.05;0.90;;;;;;;9.12;33.91;100789.22;1839663;75;21179;-72
2021/04/24 11:21:27;;;;;;;3.47;0.70;;;;;;;9.11;34.39;100795.60;1819238;78;21210;-72
2021/04/24 11:24:01;;;;;;;1.52;0.68;;;;;;;8.97;34.90;100792.94;1814392;78;21773;-72
2021/04/24 11:26:35;;;;;;;2.08;0.75;;;;;;;8.88;34.68;100801.03;1815873;76;21160;-71
2021/04/24 11:29:14;;;;;;;1.52;0.60;;;;;;;8.87;35.11;100812.75;1817459;78;21227;-72
2021/04/24 11:31:54;;;;;;;1.35;0.70;;;;;;;8.90;35.06;100799.76;1827068;77;21320;-71
2021/04/24 11:34:43;;;;;;;4.15;0.98;;;;;;;8.86;35.23;100797.82;1821235;78;21132;-72
2021/04/24 11:40:23;;;;;;;2.67;0.80;;;;;;;8.54;35.22;100802.81;1795679;78;22755;-72
2021/04/24 11:42:55;;;;;;;1.87;0.65;;;;;;;8.36;34.81;100803.78;1748376;81;21184;-73
2021/04/24 11:45:48;;;;;;;3.90;1.27;;;;;;;8.33;34.21;100791.75;1760744;79;21134;-71
2021/04/24 11:48:23;;;;;;;3.08;0.93;;;;;;;8.42;33.63;100801.02;1786557;78;21182;-72
2021/04/24 11:51:01;;;;;;;3.20;1.20;;;;;;;8.70;34.14;100779.42;1756736;79;22758;-71